sensor_id;sensor_type;location;lat;lon;timestamp;temperature;humidity
37268;DHT22;23154;52.542;13.362;2022-09-02T00:00:54;13.20;99.90
37268;DHT22;23154;52.542;13.362;2022-09-02T00:03:33;13.30;99.90
37268;DHT22;23154;52.542;13.362;2022-09-02T00:06:00;13.20;99.90
37268;DHT22;23154;52.542;13.362;2022-09-02T00:08:27;13.30;99.90
37268;DHT22;23154;52.542;13.362;2022-09-02T00:10:53;13.40;99.90
37268;DHT22;23154;52.542;13.362;2022-09-02T00:13:19;13.40;99.90
37268;DHT22;23154;52.542;13.362;2022-09-02T00:15:46;13.50;99.90
37268;DHT22;23154;52.542;13.362;2022-09-02T00:18:14;13.50;99.90
37268;DHT22;23154;52.542;13.362;2022-09-02T00:20:42;13.50;99.90
37268;DHT22;23154;52.542;13.362;2022-09-02T00:23:09;13.50;99.90
37268;DHT22;23154;52.542;13.362;2022-09-02T00:25:36;13.60;99.90
37268;DHT22;23154;52.542;13.362;2022-09-02T00:28:02;13.60;99.90
37268;DHT22;23154;52.542;13.362;2022-09-02T00:30:28;13.60;99.90
37268;DHT22;23154;52.542;13.362;2022-09-02T00:32:54;13.60;99.90
37268;DHT22;23154;52.542;13.362;2022-09-02T00:35:20;13.60;99.90
37268;DHT22;23154;52.542;13.362;2022-09-02T00:37:46;13.60;99.90
37268;DHT22;23154;52.542;13.362;2022-09-02T00:40:12;13.60;99.90
37268;DHT22;23154;52.542;13.362;2022-09-02T00:42:38;13.70;99.90
37268;DHT22;23154;52.542;13.362;2022-09-02T00:45:06;13.70;99.90
37268;DHT22;23154;52.542;13.362;2022-09-02T00:47:32;13.80;99.90
37268;DHT22;23154;52.542;13.362;2022-09-02T00:49:58;13.70;99.90
37268;DHT22;23154;52.542;13.362;2022-09-02T00:52:38;13.80;99.90
37268;DHT22;23154;52.542;13.362;2022-09-02T00:55:06;13.80;99.90
37268;DHT22;23154;52.542;13.362;2022-09-02T00:57:40;13.80;99.90
37268;DHT22;23154;52.542;13.362;2022-09-02T01:00:17;13.90;99.90
37268;DHT22;23154;52.542;13.362;2022-09-02T01:02:48;13.80;99.90
37268;DHT22;23154;52.542;13.362;2022-09-02T01:05:17;13.90;99.90
37268;DHT22;23154;52.542;13.362;2022-09-02T01:07:43;13.90;99.90
37268;DHT22;23154;52.542;13.362;2022-09-02T01:10:13;13.80;99.90
37268;DHT22;23154;52.542;13.362;2022-09-02T01:12:39;13.90;99.90
37268;DHT22;23154;52.542;13.362;2022-09-02T01:15:07;14.00;99.90
37268;DHT22;23154;52.542;13.362;2022-09-02T01:17:34;13.90;99.90
37268;DHT22;23154;52.542;13.362;2022-09-02T01:20:10;13.90;99.90
37268;DHT22;23154;52.542;13.362;2022-09-02T01:22:37;14.00;99.90
37268;DHT22;23154;52.542;13.362;2022-09-02T01:25:11;13.90;99.90
37268;DHT22;23154;52.542;13.362;2022-09-02T01:27:37;13.90;99.90
37268;DHT22;23154;52.542;13.362;2022-09-02T01:30:10;13.90;99.90
37268;DHT22;23154;52.542;13.362;2022-09-02T01:32:36;14.00;99.90
37268;DHT22;23154;52.542;13.362;2022-09-02T01:35:02;14.10;99.90
37268;DHT22;23154;52.542;13.362;2022-09-02T01:37:28;14.00;99.90
37268;DHT22;23154;52.542;13.362;2022-09-02T01:39:53;14.00;99.90
37268;DHT22;23154;52.542;13.362;2022-09-02T01:42:20;13.90;99.90
37268;DHT22;23154;52.542;13.362;2022-09-02T01:44:46;13.90;99.90
37268;DHT22;23154;52.542;13.362;2022-09-02T01:47:14;13.90;99.90
37268;DHT22;23154;52.542;13.362;2022-09-02T01:49:41;13.90;99.90
37268;DHT22;23154;52.542;13.362;2022-09-02T01:52:07;13.80;99.90
37268;DHT22;23154;52.542;13.362;2022-09-02T01:54:33;13.80;99.90
37268;DHT22;23154;52.542;13.362;2022-09-02T01:56:59;13.90;99.90
37268;DHT22;23154;52.542;13.362;2022-09-02T01:59:24;13.90;99.90
37268;DHT22;23154;52.542;13.362;2022-09-02T02:01:50;13.90;99.90
37268;DHT22;23154;52.542;13.362;2022-09-02T02:04:16;13.90;99.90
37268;DHT22;23154;52.542;13.362;2022-09-02T02:06:43;13.90;99.90
37268;DHT22;23154;52.542;13.362;2022-09-02T02:09:10;13.90;99.90
37268;DHT22;23154;52.542;13.362;2022-09-02T02:11:36;14.00;99.90
37268;DHT22;23154;52.542;13.362;2022-09-02T02:14:02;13.90;99.90
37268;DHT22;23154;52.542;13.362;2022-09-02T02:16:28;14.00;99.90
37268;DHT22;23154;52.542;13.362;2022-09-02T02:18:54;14.00;99.90
37268;DHT22;23154;52.542;13.362;2022-09-02T02:21:19;13.90;99.90
37268;DHT22;23154;52.542;13.362;2022-09-02T02:23:45;13.90;99.90
37268;DHT22;23154;52.542;13.362;2022-09-02T02:26:11;13.80;99.90
37268;DHT22;23154;52.542;13.362;2022-09-02T02:28:37;13.80;99.90
37268;DHT22;23154;52.542;13.362;2022-09-02T02:31:03;13.70;99.90
37268;DHT22;23154;52.542;13.362;2022-09-02T02:33:29;13.70;99.90
37268;DHT22;23154;52.542;13.362;2022-09-02T02:35:55;13.70;99.90
37268;DHT22;23154;52.542;13.362;2022-09-02T02:38:21;13.70;99.90
37268;DHT22;23154;52.542;13.362;2022-09-02T02:40:47;13.60;99.90
37268;DHT22;23154;52.542;13.362;2022-09-02T02:43:12;13.60;99.90
37268;DHT22;23154;52.542;13.362;2022-09-02T02:45:38;13.60;99.90
37268;DHT22;23154;52.542;13.362;2022-09-02T02:48:04;13.70;99.90
37268;DHT22;23154;52.542;13.362;2022-09-02T02:50:30;13.70;99.90
37268;DHT22;23154;52.542;13.362;2022-09-02T02:52:55;13.60;99.90
37268;DHT22;23154;52.542;13.362;2022-09-02T02:55:22;13.60;99.90
37268;DHT22;23154;52.542;13.362;2022-09-02T02:57:48;13.50;99.90
37268;DHT22;23154;52.542;13.362;2022-09-02T03:00:23;13.50;99.90
37268;DHT22;23154;52.542;13.362;2022-09-02T03:02:49;13.50;99.90
37268;DHT22;23154;52.542;13.362;2022-09-02T03:05:15;13.50;99.90
37268;DHT22;23154;52.542;13.362;2022-09-02T03:07:41;13.50;99.90
37268;DHT22;23154;52.542;13.362;2022-09-02T03:10:09;13.50;99.90
37268;DHT22;23154;52.542;13.362;2022-09-02T03:12:35;13.50;99.90
37268;DHT22;23154;52.542;13.362;2022-09-02T03:15:01;13.40;99.90
37268;DHT22;23154;52.542;13.362;2022-09-02T03:17:27;13.40;99.90
37268;DHT22;23154;52.542;13.362;2022-09-02T03:19:53;13.40;99.90
37268;DHT22;23154;52.542;13.362;2022-09-02T03:22:19;13.30;99.90
37268;DHT22;23154;52.542;13.362;2022-09-02T03:24:44;13.30;99.90
37268;DHT22;23154;52.542;13.362;2022-09-02T03:27:10;13.30;99.90
37268;DHT22;23154;52.542;13.362;2022-09-02T03:29:36;13.30;99.90
37268;DHT22;23154;52.542;13.362;2022-09-02T03:32:02;13.20;99.90
37268;DHT22;23154;52.542;13.362;2022-09-02T03:34:27;13.10;99.90
37268;DHT22;23154;52.542;13.362;2022-09-02T03:36:53;13.10;99.90
37268;DHT22;23154;52.542;13.362;2022-09-02T03:39:19;13.00;99.90
37268;DHT22;23154;52.542;13.362;2022-09-02T03:41:45;13.10;99.90
37268;DHT22;23154;52.542;13.362;2022-09-02T03:44:13;12.90;99.90
37268;DHT22;23154;52.542;13.362;2022-09-02T03:46:38;12.90;99.90
37268;DHT22;23154;52.542;13.362;2022-09-02T03:49:04;12.90;99.90
37268;DHT22;23154;52.542;13.362;2022-09-02T03:51:30;12.80;99.90
37268;DHT22;23154;52.542;13.362;2022-09-02T03:53:56;12.80;99.90
37268;DHT22;23154;52.542;13.362;2022-09-02T03:56:21;12.80;99.90
37268;DHT22;23154;52.542;13.362;2022-09-02T03:58:49;12.80;99.90
37268;DHT22;23154;52.542;13.362;2022-09-02T04:01:20;12.80;99.90
37268;DHT22;23154;52.542;13.362;2022-09-02T04:03:47;12.70;99.90
37268;DHT22;23154;52.542;13.362;2022-09-02T04:06:14;12.80;99.90
37268;DHT22;23154;52.542;13.362;2022-09-02T04:08:41;12.70;99.90
37268;DHT22;23154;52.542;13.362;2022-09-02T04:11:11;12.60;99.90
37268;DHT22;23154;52.542;13.362;2022-09-02T04:13:39;12.60;99.90
37268;DHT22;23154;52.542;13.362;2022-09-02T04:16:10;12.60;99.90
37268;DHT22;23154;52.542;13.362;2022-09-02T04:18:36;12.60;99.90
37268;DHT22;23154;52.542;13.362;2022-09-02T04:21:02;12.50;99.90
37268;DHT22;23154;52.542;13.362;2022-09-02T04:23:28;12.50;99.90
37268;DHT22;23154;52.542;13.362;2022-09-02T04:25:54;12.60;99.90
37268;DHT22;23154;52.542;13.362;2022-09-02T04:28:19;12.60;99.90
37268;DHT22;23154;52.542;13.362;2022-09-02T04:30:45;12.60;99.90
37268;DHT22;23154;52.542;13.362;2022-09-02T04:33:11;12.70;99.90
37268;DHT22;23154;52.542;13.362;2022-09-02T04:35:42;12.60;99.90
37268;DHT22;23154;52.542;13.362;2022-09-02T04:38:08;12.70;99.90
37268;DHT22;23154;52.542;13.362;2022-09-02T04:40:33;12.70;99.90
37268;DHT22;23154;52.542;13.362;2022-09-02T04:42:59;12.70;99.90
37268;DHT22;23154;52.542;13.362;2022-09-02T04:45:25;12.70;99.90
37268;DHT22;23154;52.542;13.362;2022-09-02T04:47:50;12.80;99.90
37268;DHT22;23154;52.542;13.362;2022-09-02T04:50:16;12.70;99.90
37268;DHT22;23154;52.542;13.362;2022-09-02T04:52:42;12.70;99.90
37268;DHT22;23154;52.542;13.362;2022-09-02T04:55:08;12.80;99.90
37268;DHT22;23154;52.542;13.362;2022-09-02T04:57:34;12.70;99.90
37268;DHT22;23154;52.542;13.362;2022-09-02T05:00:02;12.70;99.90
37268;DHT22;23154;52.542;13.362;2022-09-02T05:02:29;12.80;99.90
37268;DHT22;23154;52.542;13.362;2022-09-02T05:04:54;12.80;99.90
37268;DHT22;23154;52.542;13.362;2022-09-02T05:07:20;12.80;99.90
37268;DHT22;23154;52.542;13.362;2022-09-02T05:09:45;12.80;99.90
37268;DHT22;23154;52.542;13.362;2022-09-02T05:12:11;12.80;99.90
37268;DHT22;23154;52.542;13.362;2022-09-02T05:14:37;12.80;99.90
37268;DHT22;23154;52.542;13.362;2022-09-02T05:17:03;12.90;99.90
37268;DHT22;23154;52.542;13.362;2022-09-02T05:19:29;12.90;99.90
37268;DHT22;23154;52.542;13.362;2022-09-02T05:21:55;13.00;99.90
37268;DHT22;23154;52.542;13.362;2022-09-02T05:24:24;13.10;99.90
37268;DHT22;23154;52.542;13.362;2022-09-02T05:26:49;13.10;99.90
37268;DHT22;23154;52.542;13.362;2022-09-02T05:29:16;13.20;99.90
37268;DHT22;23154;52.542;13.362;2022-09-02T05:31:45;13.40;99.90
37268;DHT22;23154;52.542;13.362;2022-09-02T05:34:10;13.40;99.90
37268;DHT22;23154;52.542;13.362;2022-09-02T05:36:36;13.60;99.90
37268;DHT22;23154;52.542;13.362;2022-09-02T05:39:02;13.70;99.90
37268;DHT22;23154;52.542;13.362;2022-09-02T05:41:29;13.80;99.90
37268;DHT22;23154;52.542;13.362;2022-09-02T05:43:57;13.80;99.90
37268;DHT22;23154;52.542;13.362;2022-09-02T05:46:24;14.00;99.90
37268;DHT22;23154;52.542;13.362;2022-09-02T05:48:51;14.10;99.90
37268;DHT22;23154;52.542;13.362;2022-09-02T05:51:46;14.20;99.90
37268;DHT22;23154;52.542;13.362;2022-09-02T06:00:56;14.60;99.90
37268;DHT22;23154;52.542;13.362;2022-09-02T06:03:23;14.60;99.90
37268;DHT22;23154;52.542;13.362;2022-09-02T06:05:58;14.60;99.90
37268;DHT22;23154;52.542;13.362;2022-09-02T06:08:24;14.70;99.90
37268;DHT22;23154;52.542;13.362;2022-09-02T06:10:50;14.70;99.90
37268;DHT22;23154;52.542;13.362;2022-09-02T06:13:16;14.70;99.90
37268;DHT22;23154;52.542;13.362;2022-09-02T06:15:45;14.90;99.90
37268;DHT22;23154;52.542;13.362;2022-09-02T06:18:11;15.00;99.90
37268;DHT22;23154;52.542;13.362;2022-09-02T06:20:45;15.00;99.90
37268;DHT22;23154;52.542;13.362;2022-09-02T06:23:12;15.20;99.90
37268;DHT22;23154;52.542;13.362;2022-09-02T06:25:40;15.20;99.90
37268;DHT22;23154;52.542;13.362;2022-09-02T06:28:06;15.10;99.90
37268;DHT22;23154;52.542;13.362;2022-09-02T06:30:33;15.10;99.90
37268;DHT22;23154;52.542;13.362;2022-09-02T06:32:59;15.30;99.90
37268;DHT22;23154;52.542;13.362;2022-09-02T06:35:27;15.20;99.90
37268;DHT22;23154;52.542;13.362;2022-09-02T06:37:53;15.10;99.90
37268;DHT22;23154;52.542;13.362;2022-09-02T06:40:19;15.30;99.90
37268;DHT22;23154;52.542;13.362;2022-09-02T06:42:44;15.40;99.90
37268;DHT22;23154;52.542;13.362;2022-09-02T06:45:10;15.40;99.90
37268;DHT22;23154;52.542;13.362;2022-09-02T06:47:35;15.50;99.90
37268;DHT22;23154;52.542;13.362;2022-09-02T06:50:01;15.40;99.90
37268;DHT22;23154;52.542;13.362;2022-09-02T06:52:27;15.50;99.90
37268;DHT22;23154;52.542;13.362;2022-09-02T06:54:53;15.40;99.90
37268;DHT22;23154;52.542;13.362;2022-09-02T06:57:20;15.50;99.90
37268;DHT22;23154;52.542;13.362;2022-09-02T06:59:46;15.50;99.90
37268;DHT22;23154;52.542;13.362;2022-09-02T07:02:12;15.70;99.90
37268;DHT22;23154;52.542;13.362;2022-09-02T07:04:39;15.70;99.90
37268;DHT22;23154;52.542;13.362;2022-09-02T07:07:23;16.00;99.90
37268;DHT22;23154;52.542;13.362;2022-09-02T07:09:49;16.00;99.90
37268;DHT22;23154;52.542;13.362;2022-09-02T07:12:14;15.80;99.90
37268;DHT22;23154;52.542;13.362;2022-09-02T07:14:42;15.70;99.90
37268;DHT22;23154;52.542;13.362;2022-09-02T07:17:09;15.80;99.90
37268;DHT22;23154;52.542;13.362;2022-09-02T07:19:35;15.70;99.90
37268;DHT22;23154;52.542;13.362;2022-09-02T07:22:05;15.80;99.90
37268;DHT22;23154;52.542;13.362;2022-09-02T07:24:31;15.80;99.90
37268;DHT22;23154;52.542;13.362;2022-09-02T07:26:57;16.00;99.90
37268;DHT22;23154;52.542;13.362;2022-09-02T07:29:22;16.00;99.90
37268;DHT22;23154;52.542;13.362;2022-09-02T07:31:48;16.00;99.90
37268;DHT22;23154;52.542;13.362;2022-09-02T07:34:15;16.20;99.90
37268;DHT22;23154;52.542;13.362;2022-09-02T07:36:41;16.20;99.90
37268;DHT22;23154;52.542;13.362;2022-09-02T07:39:09;16.40;99.90
37268;DHT22;23154;52.542;13.362;2022-09-02T07:41:35;16.50;99.90
37268;DHT22;23154;52.542;13.362;2022-09-02T07:44:02;16.60;99.90
37268;DHT22;23154;52.542;13.362;2022-09-02T07:46:28;16.70;99.90
37268;DHT22;23154;52.542;13.362;2022-09-02T07:48:56;16.70;99.90
37268;DHT22;23154;52.542;13.362;2022-09-02T07:51:22;16.80;99.90
37268;DHT22;23154;52.542;13.362;2022-09-02T07:53:48;16.70;99.90
37268;DHT22;23154;52.542;13.362;2022-09-02T07:56:14;16.80;99.90
37268;DHT22;23154;52.542;13.362;2022-09-02T07:58:41;16.90;99.90
37268;DHT22;23154;52.542;13.362;2022-09-02T08:01:07;17.00;99.90
37268;DHT22;23154;52.542;13.362;2022-09-02T08:03:35;17.20;99.90
37268;DHT22;23154;52.542;13.362;2022-09-02T08:06:01;17.10;99.90
37268;DHT22;23154;52.542;13.362;2022-09-02T08:08:28;17.30;99.90
37268;DHT22;23154;52.542;13.362;2022-09-02T08:10:54;17.20;99.90
37268;DHT22;23154;52.542;13.362;2022-09-02T08:13:20;17.30;99.90
37268;DHT22;23154;52.542;13.362;2022-09-02T08:15:47;17.40;99.90
37268;DHT22;23154;52.542;13.362;2022-09-02T08:18:12;17.50;99.90
37268;DHT22;23154;52.542;13.362;2022-09-02T08:20:38;17.60;99.90
37268;DHT22;23154;52.542;13.362;2022-09-02T08:23:05;17.80;99.90
37268;DHT22;23154;52.542;13.362;2022-09-02T08:25:34;17.90;99.90
37268;DHT22;23154;52.542;13.362;2022-09-02T08:28:00;18.00;99.90
37268;DHT22;23154;52.542;13.362;2022-09-02T08:30:26;18.00;99.90
37268;DHT22;23154;52.542;13.362;2022-09-02T08:32:52;18.10;99.90
37268;DHT22;23154;52.542;13.362;2022-09-02T08:35:18;18.30;99.90
37268;DHT22;23154;52.542;13.362;2022-09-02T08:37:44;18.40;99.90
37268;DHT22;23154;52.542;13.362;2022-09-02T08:40:16;18.20;99.90
37268;DHT22;23154;52.542;13.362;2022-09-02T08:42:45;18.40;99.90
37268;DHT22;23154;52.542;13.362;2022-09-02T08:45:20;18.40;99.90
37268;DHT22;23154;52.542;13.362;2022-09-02T08:47:55;18.40;99.90
37268;DHT22;23154;52.542;13.362;2022-09-02T08:50:23;18.50;99.90
37268;DHT22;23154;52.542;13.362;2022-09-02T08:53:03;18.60;99.90
37268;DHT22;23154;52.542;13.362;2022-09-02T08:55:44;18.60;99.90
37268;DHT22;23154;52.542;13.362;2022-09-02T08:58:16;18.70;99.90
37268;DHT22;23154;52.542;13.362;2022-09-02T09:00:43;18.80;99.90
37268;DHT22;23154;52.542;13.362;2022-09-02T09:03:26;18.80;99.90
37268;DHT22;23154;52.542;13.362;2022-09-02T09:08:51;18.90;99.90
37268;DHT22;23154;52.542;13.362;2022-09-02T09:17:19;19.10;99.90
37268;DHT22;23154;52.542;13.362;2022-09-02T09:19:51;19.30;99.90
37268;DHT22;23154;52.542;13.362;2022-09-02T09:22:25;19.40;99.90
37268;DHT22;23154;52.542;13.362;2022-09-02T09:24:55;19.40;99.90
37268;DHT22;23154;52.542;13.362;2022-09-02T09:27:22;19.40;99.90
37268;DHT22;23154;52.542;13.362;2022-09-02T09:29:48;19.50;99.90
37268;DHT22;23154;52.542;13.362;2022-09-02T09:32:35;19.60;99.90
37268;DHT22;23154;52.542;13.362;2022-09-02T09:35:12;19.60;99.90
37268;DHT22;23154;52.542;13.362;2022-09-02T09:37:46;19.70;99.90
37268;DHT22;23154;52.542;13.362;2022-09-02T09:45:19;19.80;99.90
37268;DHT22;23154;52.542;13.362;2022-09-02T09:48:23;20.00;99.90
37268;DHT22;23154;52.542;13.362;2022-09-02T09:53:26;20.00;99.90
37268;DHT22;23154;52.542;13.362;2022-09-02T09:56:02;20.20;99.90
37268;DHT22;23154;52.542;13.362;2022-09-02T10:01:25;20.30;99.90
37268;DHT22;23154;52.542;13.362;2022-09-02T10:04:40;20.10;99.90
37268;DHT22;23154;52.542;13.362;2022-09-02T10:06:47;20.10;99.90
37268;DHT22;23154;52.542;13.362;2022-09-02T10:11:38;20.10;96.90
37268;DHT22;23154;52.542;13.362;2022-09-02T10:14:18;20.20;97.80
37268;DHT22;23154;52.542;13.362;2022-09-02T10:19:25;20.40;98.40
37268;DHT22;23154;52.542;13.362;2022-09-02T10:22:30;20.70;97.60
37268;DHT22;23154;52.542;13.362;2022-09-02T10:28:17;20.80;93.20
37268;DHT22;23154;52.542;13.362;2022-09-02T10:31:02;21.20;93.20
37268;DHT22;23154;52.542;13.362;2022-09-02T10:33:42;21.50;92.40
37268;DHT22;23154;52.542;13.362;2022-09-02T10:36:13;21.60;92.70
37268;DHT22;23154;52.542;13.362;2022-09-02T10:38:43;21.30;92.80
37268;DHT22;23154;52.542;13.362;2022-09-02T10:41:40;21.10;92.00
37268;DHT22;23154;52.542;13.362;2022-09-02T10:44:32;21.20;93.00
37268;DHT22;23154;52.542;13.362;2022-09-02T10:47:04;21.00;92.60
37268;DHT22;23154;52.542;13.362;2022-09-02T10:57:56;21.10;93.50
37268;DHT22;23154;52.542;13.362;2022-09-02T11:00:24;21.10;92.50
37268;DHT22;23154;52.542;13.362;2022-09-02T11:05:27;21.20;91.90
37268;DHT22;23154;52.542;13.362;2022-09-02T11:08:01;21.00;92.20
37268;DHT22;23154;52.542;13.362;2022-09-02T11:10:36;21.10;91.20
37268;DHT22;23154;52.542;13.362;2022-09-02T11:13:14;21.10;90.90
37268;DHT22;23154;52.542;13.362;2022-09-02T11:15:46;20.90;90.40
37268;DHT22;23154;52.542;13.362;2022-09-02T11:21:25;20.60;91.50
37268;DHT22;23154;52.542;13.362;2022-09-02T11:23:59;20.90;91.60
37268;DHT22;23154;52.542;13.362;2022-09-02T11:26:51;20.90;90.50
37268;DHT22;23154;52.542;13.362;2022-09-02T11:29:25;21.10;90.00
37268;DHT22;23154;52.542;13.362;2022-09-02T11:32:09;21.20;88.90
37268;DHT22;23154;52.542;13.362;2022-09-02T11:34:49;21.10;90.20
37268;DHT22;23154;52.542;13.362;2022-09-02T11:40:11;21.00;90.90
37268;DHT22;23154;52.542;13.362;2022-09-02T11:54:06;21.00;91.80
37268;DHT22;23154;52.542;13.362;2022-09-02T11:56:37;21.20;91.10
37268;DHT22;23154;52.542;13.362;2022-09-02T11:59:05;21.20;91.20
37268;DHT22;23154;52.542;13.362;2022-09-02T12:01:46;21.50;90.40
37268;DHT22;23154;52.542;13.362;2022-09-02T12:09:52;21.70;85.40
37268;DHT22;23154;52.542;13.362;2022-09-02T12:17:44;22.30;82.00
37268;DHT22;23154;52.542;13.362;2022-09-02T12:23:03;22.20;81.80
37268;DHT22;23154;52.542;13.362;2022-09-02T12:28:24;22.20;80.20
37268;DHT22;23154;52.542;13.362;2022-09-02T12:33:39;22.00;81.60
37268;DHT22;23154;52.542;13.362;2022-09-02T12:36:07;22.30;81.60
37268;DHT22;23154;52.542;13.362;2022-09-02T12:52:00;22.40;77.60
37268;DHT22;23154;52.542;13.362;2022-09-02T12:54:48;22.40;79.40
37268;DHT22;23154;52.542;13.362;2022-09-02T12:57:16;23.00;79.70
37268;DHT22;23154;52.542;13.362;2022-09-02T12:59:44;23.20;78.90
37268;DHT22;23154;52.542;13.362;2022-09-02T13:10:25;22.70;78.90
37268;DHT22;23154;52.542;13.362;2022-09-02T13:15:50;22.30;79.10
37268;DHT22;23154;52.542;13.362;2022-09-02T13:29:47;22.40;79.20
37268;DHT22;23154;52.542;13.362;2022-09-02T13:32:30;22.60;78.40
37268;DHT22;23154;52.542;13.362;2022-09-02T13:35:00;22.60;78.30
37268;DHT22;23154;52.542;13.362;2022-09-02T13:37:38;22.70;76.90
37268;DHT22;23154;52.542;13.362;2022-09-02T13:40:26;22.50;78.60
37268;DHT22;23154;52.542;13.362;2022-09-02T13:42:57;22.30;79.30
37268;DHT22;23154;52.542;13.362;2022-09-02T13:45:25;22.20;77.50
37268;DHT22;23154;52.542;13.362;2022-09-02T13:48:05;22.50;78.20
37268;DHT22;23154;52.542;13.362;2022-09-02T13:50:32;22.30;77.00
37268;DHT22;23154;52.542;13.362;2022-09-02T13:53:01;22.50;77.40
37268;DHT22;23154;52.542;13.362;2022-09-02T13:55:28;22.70;76.10
37268;DHT22;23154;52.542;13.362;2022-09-02T13:58:05;22.40;76.90
37268;DHT22;23154;52.542;13.362;2022-09-02T14:00:32;22.40;76.90
37268;DHT22;23154;52.542;13.362;2022-09-02T14:03:05;22.10;77.40
37268;DHT22;23154;52.542;13.362;2022-09-02T14:05:32;22.00;77.20
37268;DHT22;23154;52.542;13.362;2022-09-02T14:08:03;21.90;76.60
37268;DHT22;23154;52.542;13.362;2022-09-02T14:10:30;22.00;77.90
37268;DHT22;23154;52.542;13.362;2022-09-02T14:12:59;22.00;77.50
37268;DHT22;23154;52.542;13.362;2022-09-02T14:15:28;21.80;76.90
37268;DHT22;23154;52.542;13.362;2022-09-02T14:20:51;21.60;78.80
37268;DHT22;23154;52.542;13.362;2022-09-02T14:23:18;21.60;78.10
37268;DHT22;23154;52.542;13.362;2022-09-02T14:26:10;21.80;79.70
37268;DHT22;23154;52.542;13.362;2022-09-02T14:28:36;22.40;77.70
37268;DHT22;23154;52.542;13.362;2022-09-02T14:31:07;22.90;75.80
37268;DHT22;23154;52.542;13.362;2022-09-02T14:33:45;22.90;75.40
37268;DHT22;23154;52.542;13.362;2022-09-02T14:44:09;23.10;74.80
37268;DHT22;23154;52.542;13.362;2022-09-02T14:46:47;23.40;74.60
37268;DHT22;23154;52.542;13.362;2022-09-02T14:51:48;23.40;73.40
37268;DHT22;23154;52.542;13.362;2022-09-02T14:56:58;22.30;75.10
37268;DHT22;23154;52.542;13.362;2022-09-02T14:59:24;21.90;76.70
37268;DHT22;23154;52.542;13.362;2022-09-02T15:01:51;21.60;78.60
37268;DHT22;23154;52.542;13.362;2022-09-02T15:04:18;21.60;78.70
37268;DHT22;23154;52.542;13.362;2022-09-02T15:06:44;22.30;76.60
37268;DHT22;23154;52.542;13.362;2022-09-02T15:09:12;23.00;73.40
37268;DHT22;23154;52.542;13.362;2022-09-02T15:11:44;23.60;71.90
37268;DHT22;23154;52.542;13.362;2022-09-02T15:14:12;23.60;70.50
37268;DHT22;23154;52.542;13.362;2022-09-02T15:16:39;23.80;70.60
37268;DHT22;23154;52.542;13.362;2022-09-02T15:19:04;23.30;73.10
37268;DHT22;23154;52.542;13.362;2022-09-02T15:21:30;22.70;73.60
37268;DHT22;23154;52.542;13.362;2022-09-02T15:23:57;22.30;75.20
37268;DHT22;23154;52.542;13.362;2022-09-02T15:26:22;22.20;75.70
37268;DHT22;23154;52.542;13.362;2022-09-02T15:28:48;22.70;74.80
37268;DHT22;23154;52.542;13.362;2022-09-02T15:31:14;23.00;73.30
37268;DHT22;23154;52.542;13.362;2022-09-02T15:33:40;23.30;73.40
37268;DHT22;23154;52.542;13.362;2022-09-02T15:36:08;24.00;71.40
37268;DHT22;23154;52.542;13.362;2022-09-02T15:38:35;24.00;69.60
37268;DHT22;23154;52.542;13.362;2022-09-02T15:41:17;23.90;69.70
37268;DHT22;23154;52.542;13.362;2022-09-02T15:43:45;23.40;70.70
37268;DHT22;23154;52.542;13.362;2022-09-02T15:46:24;23.00;71.40
37268;DHT22;23154;52.542;13.362;2022-09-02T15:48:50;22.80;71.00
37268;DHT22;23154;52.542;13.362;2022-09-02T15:51:19;22.90;71.20
37268;DHT22;23154;52.542;13.362;2022-09-02T15:53:44;22.40;72.90
37268;DHT22;23154;52.542;13.362;2022-09-02T15:56:18;22.20;73.10
37268;DHT22;23154;52.542;13.362;2022-09-02T15:58:45;21.70;73.50
37268;DHT22;23154;52.542;13.362;2022-09-02T16:01:11;21.40;75.00
37268;DHT22;23154;52.542;13.362;2022-09-02T16:03:37;21.30;75.60
37268;DHT22;23154;52.542;13.362;2022-09-02T16:06:05;21.10;75.90
37268;DHT22;23154;52.542;13.362;2022-09-02T16:08:33;21.10;76.20
37268;DHT22;23154;52.542;13.362;2022-09-02T16:11:06;21.00;76.00
37268;DHT22;23154;52.542;13.362;2022-09-02T16:13:33;21.20;76.90
37268;DHT22;23154;52.542;13.362;2022-09-02T16:16:10;21.10;76.20
37268;DHT22;23154;52.542;13.362;2022-09-02T16:18:37;21.20;76.60
37268;DHT22;23154;52.542;13.362;2022-09-02T16:21:05;21.40;75.40
37268;DHT22;23154;52.542;13.362;2022-09-02T16:23:32;21.50;74.60
37268;DHT22;23154;52.542;13.362;2022-09-02T16:28:36;21.60;73.90
37268;DHT22;23154;52.542;13.362;2022-09-02T16:31:03;21.30;75.60
37268;DHT22;23154;52.542;13.362;2022-09-02T16:33:29;21.20;75.80
37268;DHT22;23154;52.542;13.362;2022-09-02T16:35:55;21.40;75.00
37268;DHT22;23154;52.542;13.362;2022-09-02T16:38:21;21.50;74.90
37268;DHT22;23154;52.542;13.362;2022-09-02T16:40:51;21.30;75.40
37268;DHT22;23154;52.542;13.362;2022-09-02T16:43:16;21.10;75.40
37268;DHT22;23154;52.542;13.362;2022-09-02T16:45:43;20.90;76.70
37268;DHT22;23154;52.542;13.362;2022-09-02T16:48:10;20.70;76.40
37268;DHT22;23154;52.542;13.362;2022-09-02T16:50:36;20.50;76.70
37268;DHT22;23154;52.542;13.362;2022-09-02T16:53:02;20.40;77.20
37268;DHT22;23154;52.542;13.362;2022-09-02T16:55:28;20.30;77.30
37268;DHT22;23154;52.542;13.362;2022-09-02T16:57:54;20.20;78.10
37268;DHT22;23154;52.542;13.362;2022-09-02T17:00:20;20.20;78.60
37268;DHT22;23154;52.542;13.362;2022-09-02T17:02:47;20.20;79.00
37268;DHT22;23154;52.542;13.362;2022-09-02T17:05:14;20.10;78.80
37268;DHT22;23154;52.542;13.362;2022-09-02T17:07:42;20.20;79.20
37268;DHT22;23154;52.542;13.362;2022-09-02T17:10:09;20.10;79.40
37268;DHT22;23154;52.542;13.362;2022-09-02T17:12:35;20.00;79.70
37268;DHT22;23154;52.542;13.362;2022-09-02T17:15:01;20.00;78.70
37268;DHT22;23154;52.542;13.362;2022-09-02T17:17:26;19.90;79.40
37268;DHT22;23154;52.542;13.362;2022-09-02T17:19:52;19.90;79.80
37268;DHT22;23154;52.542;13.362;2022-09-02T17:22:17;19.80;80.20
37268;DHT22;23154;52.542;13.362;2022-09-02T17:24:43;19.90;80.30
37268;DHT22;23154;52.542;13.362;2022-09-02T17:27:09;20.20;79.30
37268;DHT22;23154;52.542;13.362;2022-09-02T17:29:35;20.00;79.20
37268;DHT22;23154;52.542;13.362;2022-09-02T17:32:01;19.90;79.70
37268;DHT22;23154;52.542;13.362;2022-09-02T17:34:26;19.70;80.40
37268;DHT22;23154;52.542;13.362;2022-09-02T17:36:52;19.60;81.40
37268;DHT22;23154;52.542;13.362;2022-09-02T17:39:18;19.40;82.10
37268;DHT22;23154;52.542;13.362;2022-09-02T17:41:45;19.30;82.50